sensor_id;sensor_type;location;lat;lon;timestamp;pressure;altitude;pressure_sealevel;temperature;humidity
19672;BME280;9983;51.114;13.788;2023-05-20T00:02:21;100123.97;;;15.71;82.53
19672;BME280;9983;51.114;13.788;2023-05-20T00:07:22;100132.72;;;15.37;85.27
19672;BME280;9983;51.114;13.788;2023-05-20T00:12:22;100133.66;;;15.30;86.51
19672;BME280;9983;51.114;13.788;2023-05-20T00:17:22;100126.91;;;15.40;85.03
19672;BME280;9983;51.114;13.788;2023-05-20T00:22:24;100132.84;;;15.14;87.24
19672;BME280;9983;51.114;13.788;2023-05-20T00:27:25;100114.78;;;15.00;88.94
19672;BME280;9983;51.114;13.788;2023-05-20T00:32:25;100114.81;;;15.36;85.65
19672;BME280;9983;51.114;13.788;2023-05-20T00:37:25;100104.69;;;15.24;86.70
19672;BME280;9983;51.114;13.788;2023-05-20T00:42:27;100111.41;;;14.98;88.32
19672;BME280;9983;51.114;13.788;2023-05-20T00:47:29;100113.31;;;15.34;86.53
19672;BME280;9983;51.114;13.788;2023-05-20T00:52:31;100109.25;;;15.23;87.57
19672;BME280;9983;51.114;13.788;2023-05-20T00:57:32;100123.47;;;15.32;86.63
19672;BME280;9983;51.114;13.788;2023-05-20T01:02:32;100129.22;;;15.22;87.98
19672;BME280;9983;51.114;13.788;2023-05-20T01:07:33;100119.00;;;15.39;86.45
19672;BME280;9983;51.114;13.788;2023-05-20T01:12:46;100125.69;;;15.43;85.75
19672;BME280;9983;51.114;13.788;2023-05-20T01:17:50;100122.13;;;15.21;88.13
19672;BME280;9983;51.114;13.788;2023-05-20T01:22:52;100116.31;;;15.39;86.50
19672;BME280;9983;51.114;13.788;2023-05-20T01:27:55;100116.44;;;15.31;86.69
19672;BME280;9983;51.114;13.788;2023-05-20T01:33:00;100119.25;;;14.93;89.16
19672;BME280;9983;51.114;13.788;2023-05-20T01:38:02;100113.84;;;15.23;87.26
19672;BME280;9983;51.114;13.788;2023-05-20T01:43:04;100115.69;;;15.07;88.76
19672;BME280;9983;51.114;13.788;2023-05-20T01:48:05;100124.94;;;15.13;88.48
19672;BME280;9983;51.114;13.788;2023-05-20T01:53:05;100131.56;;;14.96;89.56
19672;BME280;9983;51.114;13.788;2023-05-20T01:58:08;100123.91;;;14.99;89.42
19672;BME280;9983;51.114;13.788;2023-05-20T02:03:08;100116.66;;;15.14;88.44
19672;BME280;9983;51.114;13.788;2023-05-20T02:08:09;100123.47;;;15.32;87.33
19672;BME280;9983;51.114;13.788;2023-05-20T02:13:09;100118.91;;;15.32;87.50
19672;BME280;9983;51.114;13.788;2023-05-20T02:18:09;100118.22;;;15.09;89.46
19672;BME280;9983;51.114;13.788;2023-05-20T02:23:11;100125.22;;;15.03;89.35
19672;BME280;9983;51.114;13.788;2023-05-20T02:28:11;100116.09;;;15.04;89.66
19672;BME280;9983;51.114;13.788;2023-05-20T02:33:11;100118.06;;;14.96;90.19
19672;BME280;9983;51.114;13.788;2023-05-20T02:38:12;100128.66;;;14.82;91.55
19672;BME280;9983;51.114;13.788;2023-05-20T02:43:13;100109.59;;;14.84;91.80
19672;BME280;9983;51.114;13.788;2023-05-20T02:48:13;100106.34;;;14.89;90.92
19672;BME280;9983;51.114;13.788;2023-05-20T02:53:13;100105.03;;;14.85;92.15
19672;BME280;9983;51.114;13.788;2023-05-20T02:58:13;100091.44;;;14.78;92.05
19672;BME280;9983;51.114;13.788;2023-05-20T03:03:14;100085.38;;;14.76;92.13
19672;BME280;9983;51.114;13.788;2023-05-20T03:08:14;100075.91;;;14.80;92.09
19672;BME280;9983;51.114;13.788;2023-05-20T03:13:14;100065.47;;;14.77;92.16
19672;BME280;9983;51.114;13.788;2023-05-20T03:18:15;100065.28;;;14.49;94.73
19672;BME280;9983;51.114;13.788;2023-05-20T03:23:15;100069.22;;;14.47;95.54
19672;BME280;9983;51.114;13.788;2023-05-20T03:28:15;100079.22;;;14.38;95.81
19672;BME280;9983;51.114;13.788;2023-05-20T03:33:16;100074.97;;;14.43;96.14
19672;BME280;9983;51.114;13.788;2023-05-20T03:38:16;100072.16;;;14.52;95.73
19672;BME280;9983;51.114;13.788;2023-05-20T03:43:16;100078.41;;;14.52;96.49
19672;BME280;9983;51.114;13.788;2023-05-20T03:48:16;100078.13;;;14.62;95.72
19672;BME280;9983;51.114;13.788;2023-05-20T03:53:16;100079.31;;;14.74;94.97
19672;BME280;9983;51.114;13.788;2023-05-20T03:58:19;100077.94;;;14.78;94.73
19672;BME280;9983;51.114;13.788;2023-05-20T04:03:20;100084.25;;;14.85;94.73
19672;BME280;9983;51.114;13.788;2023-05-20T04:08:21;100086.31;;;14.83;94.53
19672;BME280;9983;51.114;13.788;2023-05-20T04:13:24;100074.03;;;14.66;96.49
19672;BME280;9983;51.114;13.788;2023-05-20T04:18:25;100070.59;;;14.72;96.50
19672;BME280;9983;51.114;13.788;2023-05-20T04:23:28;100073.09;;;14.88;95.66
19672;BME280;9983;51.114;13.788;2023-05-20T04:28:29;100081.38;;;14.87;96.00
19672;BME280;9983;51.114;13.788;2023-05-20T04:33:30;100083.13;;;14.94;95.95
19672;BME280;9983;51.114;13.788;2023-05-20T04:38:31;100089.75;;;14.92;95.74
19672;BME280;9983;51.114;13.788;2023-05-20T04:43:32;100083.00;;;15.17;94.07
19672;BME280;9983;51.114;13.788;2023-05-20T04:48:33;100080.19;;;15.25;93.71
19672;BME280;9983;51.114;13.788;2023-05-20T04:53:33;100088.16;;;14.97;96.06
19672;BME280;9983;51.114;13.788;2023-05-20T04:58:35;100086.72;;;15.52;92.53
19672;BME280;9983;51.114;13.788;2023-05-20T05:03:35;100091.06;;;15.32;93.49
19672;BME280;9983;51.114;13.788;2023-05-20T05:08:35;100088.63;;;15.37;93.09
19672;BME280;9983;51.114;13.788;2023-05-20T05:13:35;100084.81;;;15.67;91.99
19672;BME280;9983;51.114;13.788;2023-05-20T05:18:36;100076.66;;;15.61;92.38
19672;BME280;9983;51.114;13.788;2023-05-20T05:23:36;100077.09;;;15.85;90.21
19672;BME280;9983;51.114;13.788;2023-05-20T05:28:36;100086.75;;;15.94;90.37
19672;BME280;9983;51.114;13.788;2023-05-20T05:33:37;100083.84;;;15.96;90.44
19672;BME280;9983;51.114;13.788;2023-05-20T05:38:37;100085.47;;;15.90;90.66
19672;BME280;9983;51.114;13.788;2023-05-20T05:43:37;100082.97;;;15.89;90.87
19672;BME280;9983;51.114;13.788;2023-05-20T05:48:37;100091.19;;;16.02;90.31
19672;BME280;9983;51.114;13.788;2023-05-20T05:53:38;100080.84;;;15.84;91.14
19672;BME280;9983;51.114;13.788;2023-05-20T05:58:38;100085.88;;;16.15;89.03
19672;BME280;9983;51.114;13.788;2023-05-20T06:03:38;100071.25;;;16.31;88.79
19672;BME280;9983;51.114;13.788;2023-05-20T06:08:38;100071.41;;;16.02;90.84
19672;BME280;9983;51.114;13.788;2023-05-20T06:13:39;100070.13;;;16.53;87.97
19672;BME280;9983;51.114;13.788;2023-05-20T06:18:39;100062.03;;;16.88;85.27
19672;BME280;9983;51.114;13.788;2023-05-20T06:23:39;100073.06;;;16.58;85.94
19672;BME280;9983;51.114;13.788;2023-05-20T06:28:40;100074.91;;;16.86;84.24
19672;BME280;9983;51.114;13.788;2023-05-20T06:33:40;100072.53;;;17.17;83.62
19672;BME280;9983;51.114;13.788;2023-05-20T06:38:40;100068.69;;;17.39;81.96
19672;BME280;9983;51.114;13.788;2023-05-20T06:43:40;100072.63;;;17.37;80.80
19672;BME280;9983;51.114;13.788;2023-05-20T06:48:41;100063.06;;;17.48;80.79
19672;BME280;9983;51.114;13.788;2023-05-20T06:53:41;100064.41;;;17.17;81.69
19672;BME280;9983;51.114;13.788;2023-05-20T06:58:41;100053.03;;;17.41;80.92
19672;BME280;9983;51.114;13.788;2023-05-20T07:03:41;100048.44;;;17.35;80.93
19672;BME280;9983;51.114;13.788;2023-05-20T07:08:43;100040.53;;;17.47;80.44
19672;BME280;9983;51.114;13.788;2023-05-20T07:13:43;100042.28;;;17.81;79.50
19672;BME280;9983;51.114;13.788;2023-05-20T07:18:44;100029.75;;;17.80;79.18
19672;BME280;9983;51.114;13.788;2023-05-20T07:23:44;100033.31;;;18.13;77.37
19672;BME280;9983;51.114;13.788;2023-05-20T07:28:44;100044.78;;;17.76;78.71
19672;BME280;9983;51.114;13.788;2023-05-20T07:33:46;100036.03;;;18.13;77.47
19672;BME280;9983;51.114;13.788;2023-05-20T07:38:46;100027.69;;;17.82;79.32
19672;BME280;9983;51.114;13.788;2023-05-20T07:43:46;100029.75;;;18.33;76.54
19672;BME280;9983;51.114;13.788;2023-05-20T07:48:47;100027.28;;;17.98;77.53
19672;BME280;9983;51.114;13.788;2023-05-20T07:53:48;100031.81;;;18.17;75.40
19672;BME280;9983;51.114;13.788;2023-05-20T07:58:56;100032.22;;;18.34;75.72
19672;BME280;9983;51.114;13.788;2023-05-20T08:03:59;100028.00;;;18.71;74.75
19672;BME280;9983;51.114;13.788;2023-05-20T08:09:03;100023.63;;;19.15;71.57
19672;BME280;9983;51.114;13.788;2023-05-20T08:14:03;100026.25;;;18.83;72.95
19672;BME280;9983;51.114;13.788;2023-05-20T08:19:03;100021.44;;;19.30;71.07
19672;BME280;9983;51.114;13.788;2023-05-20T08:24:04;100009.13;;;18.89;72.44
19672;BME280;9983;51.114;13.788;2023-05-20T08:29:05;100017.56;;;18.62;73.69
19672;BME280;9983;51.114;13.788;2023-05-20T08:34:07;100007.59;;;18.36;73.95
19672;BME280;9983;51.114;13.788;2023-05-20T08:39:07;100010.72;;;18.39;75.16
19672;BME280;9983;51.114;13.788;2023-05-20T08:44:08;99995.94;;;18.15;76.70
19672;BME280;9983;51.114;13.788;2023-05-20T08:49:10;99984.78;;;18.63;74.36
19672;BME280;9983;51.114;13.788;2023-05-20T08:54:11;99970.66;;;18.86;74.78
19672;BME280;9983;51.114;13.788;2023-05-20T08:59:12;99974.38;;;18.91;73.64
19672;BME280;9983;51.114;13.788;2023-05-20T09:04:12;99974.38;;;18.91;73.19
19672;BME280;9983;51.114;13.788;2023-05-20T09:09:13;99974.50;;;19.10;73.08
19672;BME280;9983;51.114;13.788;2023-05-20T09:14:13;99977.53;;;19.26;71.59
19672;BME280;9983;51.114;13.788;2023-05-20T09:19:13;99984.22;;;19.87;69.17
19672;BME280;9983;51.114;13.788;2023-05-20T09:24:14;99990.22;;;19.70;68.70
19672;BME280;9983;51.114;13.788;2023-05-20T09:29:14;99973.56;;;19.60;69.69
19672;BME280;9983;51.114;13.788;2023-05-20T09:34:19;99970.97;;;19.72;69.21
19672;BME280;9983;51.114;13.788;2023-05-20T09:39:24;99976.91;;;19.62;69.76
19672;BME280;9983;51.114;13.788;2023-05-20T09:44:25;99972.09;;;19.64;70.61
19672;BME280;9983;51.114;13.788;2023-05-20T09:49:28;99974.88;;;20.01;67.88
19672;BME280;9983;51.114;13.788;2023-05-20T09:54:30;99964.63;;;20.21;68.58
19672;BME280;9983;51.114;13.788;2023-05-20T09:59:31;99959.19;;;20.21;66.90
19672;BME280;9983;51.114;13.788;2023-05-20T10:04:33;99945.16;;;20.42;66.03
19672;BME280;9983;51.114;13.788;2023-05-20T10:15:09;99940.56;;;20.91;63.49
19672;BME280;9983;51.114;13.788;2023-05-20T10:20:13;99927.97;;;21.08;63.73
19672;BME280;9983;51.114;13.788;2023-05-20T10:25:24;99925.28;;;20.90;63.77
19672;BME280;9983;51.114;13.788;2023-05-20T10:30:25;99928.03;;;21.32;63.39
19672;BME280;9983;51.114;13.788;2023-05-20T10:35:26;99931.19;;;21.70;64.06
19672;BME280;9983;51.114;13.788;2023-05-20T10:40:26;99921.59;;;22.03;61.65
19672;BME280;9983;51.114;13.788;2023-05-20T10:45:27;99908.44;;;22.00;58.62
19672;BME280;9983;51.114;13.788;2023-05-20T10:50:34;99912.84;;;22.52;57.81
19672;BME280;9983;51.114;13.788;2023-05-20T10:55:39;99917.50;;;22.92;55.84
19672;BME280;9983;51.114;13.788;2023-05-20T11:00:39;99903.50;;;22.77;57.46
19672;BME280;9983;51.114;13.788;2023-05-20T11:05:40;99909.81;;;23.51;53.44
19672;BME280;9983;51.114;13.788;2023-05-20T11:10:41;99896.38;;;23.66;52.53
19672;BME280;9983;51.114;13.788;2023-05-20T11:15:41;99888.16;;;24.65;50.58
19672;BME280;9983;51.114;13.788;2023-05-20T11:20:42;99878.84;;;24.66;50.50
19672;BME280;9983;51.114;13.788;2023-05-20T11:25:43;99878.47;;;25.06;48.68
19672;BME280;9983;51.114;13.788;2023-05-20T11:30:43;99888.94;;;25.73;48.00
19672;BME280;9983;51.114;13.788;2023-05-20T11:35:45;99881.06;;;26.33;45.78
19672;BME280;9983;51.114;13.788;2023-05-20T11:40:51;99863.63;;;26.75;44.16
19672;BME280;9983;51.114;13.788;2023-05-20T11:45:54;99865.13;;;28.58;41.28
19672;BME280;9983;51.114;13.788;2023-05-20T11:50:55;99851.16;;;28.89;40.02
19672;BME280;9983;51.114;13.788;2023-05-20T11:55:58;99851.03;;;29.72;38.94
19672;BME280;9983;51.114;13.788;2023-05-20T12:00:59;99849.81;;;30.36;36.94
19672;BME280;9983;51.114;13.788;2023-05-20T12:06:01;99842.69;;;30.72;35.82
19672;BME280;9983;51.114;13.788;2023-05-20T12:11:02;99834.69;;;30.52;35.96
19672;BME280;9983;51.114;13.788;2023-05-20T12:16:02;99819.78;;;30.24;36.69
19672;BME280;9983;51.114;13.788;2023-05-20T12:21:04;99814.16;;;30.10;37.37
19672;BME280;9983;51.114;13.788;2023-05-20T12:26:05;99812.72;;;30.37;37.41
19672;BME280;9983;51.114;13.788;2023-05-20T12:31:05;99802.81;;;30.92;36.25
19672;BME280;9983;51.114;13.788;2023-05-20T12:36:05;99791.63;;;31.16;35.86
19672;BME280;9983;51.114;13.788;2023-05-20T12:41:06;99800.31;;;31.28;34.98
19672;BME280;9983;51.114;13.788;2023-05-20T12:46:06;99790.41;;;31.22;34.63
19672;BME280;9983;51.114;13.788;2023-05-20T12:51:07;99785.94;;;31.26;35.11
19672;BME280;9983;51.114;13.788;2023-05-20T12:56:07;99768.47;;;30.37;37.27
19672;BME280;9983;51.114;13.788;2023-05-20T13:01:07;99768.03;;;28.56;40.68
19672;BME280;9983;51.114;13.788;2023-05-20T13:06:07;99776.75;;;26.99;43.05
19672;BME280;9983;51.114;13.788;2023-05-20T13:11:08;99765.13;;;26.72;44.42
19672;BME280;9983;51.114;13.788;2023-05-20T13:16:08;99756.88;;;28.77;41.36
19672;BME280;9983;51.114;13.788;2023-05-20T13:21:09;99754.31;;;30.38;38.28
19672;BME280;9983;51.114;13.788;2023-05-20T13:26:10;99748.31;;;31.52;36.38
19672;BME280;9983;51.114;13.788;2023-05-20T13:31:10;99746.22;;;31.77;35.18
19672;BME280;9983;51.114;13.788;2023-05-20T13:36:11;99737.56;;;31.92;34.66
19672;BME280;9983;51.114;13.788;2023-05-20T13:41:12;99740.16;;;32.52;33.67
19672;BME280;9983;51.114;13.788;2023-05-20T13:46:12;99729.16;;;31.83;34.00
19672;BME280;9983;51.114;13.788;2023-05-20T13:51:12;99725.75;;;32.50;33.78
19672;BME280;9983;51.114;13.788;2023-05-20T13:56:12;99732.50;;;32.71;33.42
19672;BME280;9983;51.114;13.788;2023-05-20T14:01:13;99724.22;;;32.21;33.65
19672;BME280;9983;51.114;13.788;2023-05-20T14:06:14;99709.56;;;30.55;35.59
19672;BME280;9983;51.114;13.788;2023-05-20T14:11:17;99716.22;;;31.79;34.36
19672;BME280;9983;51.114;13.788;2023-05-20T14:16:17;99706.47;;;32.45;33.29
19672;BME280;9983;51.114;13.788;2023-05-20T14:21:18;99695.28;;;32.72;32.94
19672;BME280;9983;51.114;13.788;2023-05-20T14:26:18;99690.94;;;32.66;32.62
19672;BME280;9983;51.114;13.788;2023-05-20T14:31:18;99693.28;;;31.18;34.02
19672;BME280;9983;51.114;13.788;2023-05-20T14:36:19;99691.75;;;30.24;36.13
19672;BME280;9983;51.114;13.788;2023-05-20T14:41:19;99683.94;;;31.55;34.00
19672;BME280;9983;51.114;13.788;2023-05-20T14:46:21;99673.25;;;33.06;31.84
19672;BME280;9983;51.114;13.788;2023-05-20T14:51:21;99677.56;;;33.12;31.90
19672;BME280;9983;51.114;13.788;2023-05-20T14:56:21;99686.41;;;31.16;34.03
19672;BME280;9983;51.114;13.788;2023-05-20T15:01:22;99690.91;;;29.62;37.49
19672;BME280;9983;51.114;13.788;2023-05-20T15:06:23;99685.78;;;29.21;38.53
19672;BME280;9983;51.114;13.788;2023-05-20T15:11:23;99685.25;;;28.56;39.39
19672;BME280;9983;51.114;13.788;2023-05-20T15:16:24;99683.09;;;30.11;37.23
19672;BME280;9983;51.114;13.788;2023-05-20T15:21:24;99657.84;;;29.04;38.59
19672;BME280;9983;51.114;13.788;2023-05-20T15:26:24;99650.50;;;28.55;39.59
19672;BME280;9983;51.114;13.788;2023-05-20T15:31:25;99652.66;;;28.63;39.94
19672;BME280;9983;51.114;13.788;2023-05-20T15:36:25;99640.09;;;28.52;40.24
19672;BME280;9983;51.114;13.788;2023-05-20T15:41:25;99640.47;;;29.27;38.90
19672;BME280;9983;51.114;13.788;2023-05-20T15:46:25;99628.19;;;30.56;36.79
19672;BME280;9983;51.114;13.788;2023-05-20T15:51:26;99638.66;;;28.21;40.55
19672;BME280;9983;51.114;13.788;2023-05-20T15:56:27;99636.44;;;28.23;40.47
19672;BME280;9983;51.114;13.788;2023-05-20T16:01:28;99626.31;;;27.59;41.56
19672;BME280;9983;51.114;13.788;2023-05-20T16:06:28;99625.41;;;26.23;44.64
19672;BME280;9983;51.114;13.788;2023-05-20T16:11:29;99629.63;;;25.58;46.58
19672;BME280;9983;51.114;13.788;2023-05-20T16:16:32;99622.31;;;25.17;47.25
19672;BME280;9983;51.114;13.788;2023-05-20T16:21:33;99621.59;;;25.42;46.01
19672;BME280;9983;51.114;13.788;2023-05-20T16:26:33;99627.81;;;25.17;46.86
19672;BME280;9983;51.114;13.788;2023-05-20T16:31:33;99625.31;;;25.73;45.42
19672;BME280;9983;51.114;13.788;2023-05-20T16:36:33;99623.00;;;25.54;46.18
19672;BME280;9983;51.114;13.788;2023-05-20T16:41:35;99617.97;;;25.31;46.62
19672;BME280;9983;51.114;13.788;2023-05-20T16:46:35;99621.25;;;25.23;47.15
19672;BME280;9983;51.114;13.788;2023-05-20T16:51:36;99615.50;;;24.82;48.97
19672;BME280;9983;51.114;13.788;2023-05-20T16:56:36;99624.44;;;24.36;50.24
19672;BME280;9983;51.114;13.788;2023-05-20T17:01:36;99626.94;;;24.10;50.07
19672;BME280;9983;51.114;13.788;2023-05-20T17:06:38;99630.72;;;24.04;49.99
19672;BME280;9983;51.114;13.788;2023-05-20T17:11:38;99626.88;;;24.05;50.12
19672;BME280;9983;51.114;13.788;2023-05-20T17:16:39;99630.59;;;23.94;50.33
19672;BME280;9983;51.114;13.788;2023-05-20T17:21:39;99628.25;;;23.76;50.73
19672;BME280;9983;51.114;13.788;2023-05-20T17:26:39;99644.91;;;23.53;51.26
19672;BME280;9983;51.114;13.788;2023-05-20T17:31:40;99648.91;;;23.45;51.36
19672;BME280;9983;51.114;13.788;2023-05-20T17:36:40;99638.16;;;23.38;51.72
19672;BME280;9983;51.114;13.788;2023-05-20T17:41:40;99650.34;;;23.09;52.43
19672;BME280;9983;51.114;13.788;2023-05-20T17:46:40;99646.59;;;23.15;52.76
19672;BME280;9983;51.114;13.788;2023-05-20T17:51:41;99654.84;;;22.48;55.14
19672;BME280;9983;51.114;13.788;2023-05-20T17:56:41;99659.00;;;22.34;55.89
19672;BME280;9983;51.114;13.788;2023-05-20T18:01:43;99657.72;;;22.25;57.16
19672;BME280;9983;51.114;13.788;2023-05-20T18:06:43;99661.47;;;22.52;56.80
19672;BME280;9983;51.114;13.788;2023-05-20T18:11:44;99670.31;;;21.98;58.76
19672;BME280;9983;51.114;13.788;2023-05-20T18:16:44;99665.63;;;21.81;59.68
19672;BME280;9983;51.114;13.788;2023-05-20T18:21:44;99663.97;;;21.80;59.82
19672;BME280;9983;51.114;13.788;2023-05-20T18:26:45;99669.44;;;21.40;61.82
19672;BME280;9983;51.114;13.788;2023-05-20T18:31:45;99663.16;;;21.16;62.76
19672;BME280;9983;51.114;13.788;2023-05-20T18:36:46;99669.28;;;21.47;61.76
19672;BME280;9983;51.114;13.788;2023-05-20T18:41:47;99670.50;;;21.28;62.87
19672;BME280;9983;51.114;13.788;2023-05-20T18:46:47;99677.97;;;20.97;64.12
19672;BME280;9983;51.114;13.788;2023-05-20T18:51:47;99680.91;;;20.84;65.47
19672;BME280;9983;51.114;13.788;2023-05-20T18:56:47;99676.06;;;20.63;66.96
19672;BME280;9983;51.114;13.788;2023-05-20T19:01:48;99679.03;;;20.73;66.92
19672;BME280;9983;51.114;13.788;2023-05-20T19:06:48;99675.34;;;20.67;67.44
19672;BME280;9983;51.114;13.788;2023-05-20T19:11:49;99682.84;;;20.30;69.31
19672;BME280;9983;51.114;13.788;2023-05-20T19:16:55;99687.25;;;20.43;69.00
19672;BME280;9983;51.114;13.788;2023-05-20T19:21:55;99689.91;;;20.50;68.54
19672;BME280;9983;51.114;13.788;2023-05-20T19:26:55;99697.22;;;20.37;69.18
19672;BME280;9983;51.114;13.788;2023-05-20T19:31:56;99695.63;;;20.30;69.80
19672;BME280;9983;51.114;13.788;2023-05-20T19:36:56;99693.44;;;20.20;70.57
19672;BME280;9983;51.114;13.788;2023-05-20T19:41:56;99692.28;;;20.28;70.26
19672;BME280;9983;51.114;13.788;2023-05-20T19:46:57;99701.34;;;20.10;71.64
19672;BME280;9983;51.114;13.788;2023-05-20T19:51:57;99703.53;;;19.90;72.86
19672;BME280;9983;51.114;13.788;2023-05-20T19:56:57;99714.38;;;20.08;72.01
19672;BME280;9983;51.114;13.788;2023-05-20T20:01:58;99715.81;;;19.92;72.94
19672;BME280;9983;51.114;13.788;2023-05-20T20:07:01;99713.25;;;19.97;72.25
19672;BME280;9983;51.114;13.788;2023-05-20T20:12:02;99721.53;;;19.54;74.59
19672;BME280;9983;51.114;13.788;2023-05-20T20:17:03;99714.56;;;19.77;73.61
19672;BME280;9983;51.114;13.788;2023-05-20T20:22:05;99706.13;;;19.66;74.81
19672;BME280;9983;51.114;13.788;2023-05-20T20:27:05;99712.22;;;19.44;75.67
19672;BME280;9983;51.114;13.788;2023-05-20T20:32:07;99714.97;;;19.19;76.68
19672;BME280;9983;51.114;13.788;2023-05-20T20:37:07;99718.06;;;19.04;78.38
19672;BME280;9983;51.114;13.788;2023-05-20T20:42:07;99712.28;;;19.37;76.92
19672;BME280;9983;51.114;13.788;2023-05-20T20:47:07;99723.91;;;19.08;78.12
19672;BME280;9983;51.114;13.788;2023-05-20T20:52:08;99714.69;;;18.84;80.47
19672;BME280;9983;51.114;13.788;2023-05-20T20:57:09;99716.28;;;18.73;80.79
19672;BME280;9983;51.114;13.788;2023-05-20T21:02:10;99718.84;;;17.99;85.18
19672;BME280;9983;51.114;13.788;2023-05-20T21:07:11;99707.88;;;18.75;81.09
19672;BME280;9983;51.114;13.788;2023-05-20T21:12:11;99707.38;;;18.28;83.95
19672;BME280;9983;51.114;13.788;2023-05-20T21:17:12;99698.59;;;18.33;83.88
19672;BME280;9983;51.114;13.788;2023-05-20T21:22:12;99687.66;;;17.70;88.69
19672;BME280;9983;51.114;13.788;2023-05-20T21:27:12;99686.38;;;17.79;88.35
19672;BME280;9983;51.114;13.788;2023-05-20T21:32:13;99686.25;;;18.05;85.95
19672;BME280;9983;51.114;13.788;2023-05-20T21:37:13;99696.41;;;18.10;84.81
19672;BME280;9983;51.114;13.788;2023-05-20T21:42:13;99699.09;;;18.16;84.43
19672;BME280;9983;51.114;13.788;2023-05-20T21:47:13;99689.72;;;17.81;87.01
19672;BME280;9983;51.114;13.788;2023-05-20T21:52:14;99686.88;;;17.50;89.42
19672;BME280;9983;51.114;13.788;2023-05-20T21:57:14;99686.06;;;17.42;90.51
19672;BME280;9983;51.114;13.788;2023-05-20T22:02:14;99687.81;;;17.17;92.07
19672;BME280;9983;51.114;13.788;2023-05-20T22:07:15;99694.91;;;17.18;92.08
19672;BME280;9983;51.114;13.788;2023-05-20T22:12:15;99689.81;;;17.41;90.55
19672;BME280;9983;51.114;13.788;2023-05-20T22:17:15;99697.38;;;17.26;91.74
19672;BME280;9983;51.114;13.788;2023-05-20T22:22:16;99696.22;;;16.69;94.43
19672;BME280;9983;51.114;13.788;2023-05-20T22:27:17;99692.22;;;16.13;99.66
19672;BME280;9983;51.114;13.788;2023-05-20T22:32:17;99683.72;;;16.55;96.15
19672;BME280;9983;51.114;13.788;2023-05-20T22:37:20;99672.84;;;17.08;92.25
19672;BME280;9983;51.114;13.788;2023-05-20T22:42:21;99669.97;;;16.90;93.58
19672;BME280;9983;51.114;13.788;2023-05-20T22:47:21;99669.97;;;16.90;93.48
19672;BME280;9983;51.114;13.788;2023-05-20T22:52:21;99653.72;;;16.90;93.17
19672;BME280;9983;51.114;13.788;2023-05-20T22:57:24;99659.97;;;16.31;97.71
19672;BME280;9983;51.114;13.788;2023-05-20T23:02:25;99658.72;;;16.66;95.90
19672;BME280;9983;51.114;13.788;2023-05-20T23:07:25;99658.72;;;16.53;96.13
19672;BME280;9983;51.114;13.788;2023-05-20T23:12:25;99647.09;;;16.40;96.24
19672;BME280;9983;51.114;13.788;2023-05-20T23:17:25;99646.22;;;16.13;96.58
19672;BME280;9983;51.114;13.788;2023-05-20T23:22:26;99650.81;;;16.06;96.85
19672;BME280;9983;51.114;13.788;2023-05-20T23:27:26;99649.09;;;15.85;98.39
19672;BME280;9983;51.114;13.788;2023-05-20T23:32:26;99655.78;;;16.09;95.74
19672;BME280;9983;51.114;13.788;2023-05-20T23:37:27;99646.63;;;15.97;96.76
19672;BME280;9983;51.114;13.788;2023-05-20T23:42:27;99640.38;;;16.16;96.33
19672;BME280;9983;51.114;13.788;2023-05-20T23:47:27;99638.75;;;16.15;97.15
19672;BME280;9983;51.114;13.788;2023-05-20T23:52:29;99631.69;;;16.40;94.87
19672;BME280;9983;51.114;13.788;2023-05-20T23:57:29;99639.97;;;16.19;98.08
